Time;durP1;ratioP1;P1;durP2;ratioP2;P2;SDS_P1;SDS_P2;PMS_P1;PMS_P2;Temp;Humidity;BMP_temperature;BMP_pressure;BME280_temperature;BME280_humidity;BME280_pressure;Samples;Min_cycle;Max_cycle;Signal;HPM_P1;HPM_P2
2022/05/20 00:01:06;;;;;;;5.43;1.73;;;;;;;13.92;46.04;101233.03;1439487;89;21614;-80
2022/05/20 00:03:36;;;;;;;3.27;2.03;;;;;;;13.89;46.17;101235.17;1455629;89;21452;-81
2022/05/20 00:06:02;;;;;;;11.10;2.10;;;;;;;13.85;46.29;101237.30;1454591;89;21525;-81
2022/05/20 00:08:29;;;;;;;4.80;1.93;;;;;;;13.82;46.35;101244.75;1447801;89;21452;-83
2022/05/20 00:10:56;;;;;;;3.80;1.70;;;;;;;13.76;46.36;101241.69;1433855;91;21588;-84
2022/05/20 00:13:25;;;;;;;6.47;2.20;;;;;;;13.70;46.56;101241.45;1435173;91;22425;-84
2022/05/20 00:15:53;;;;;;;3.10;1.50;;;;;;;13.65;46.69;101238.39;1431757;90;22845;-84
2022/05/20 00:18:20;;;;;;;3.53;1.93;;;;;;;13.59;46.79;101232.34;1432868;89;21466;-84
2022/05/20 00:20:46;;;;;;;4.20;2.30;;;;;;;13.52;46.99;101239.58;1426908;90;21562;-83
2022/05/20 00:23:12;;;;;;;7.63;2.20;;;;;;;13.47;47.30;101244.49;1436415;90;21488;-83
2022/05/20 00:25:48;;;;;;;3.97;1.93;;;;;;;13.40;47.68;101243.39;1438910;89;23413;-81
2022/05/20 00:28:21;;;;;;;5.97;2.23;;;;;;;13.35;47.78;101245.67;1450085;89;21466;-81
2022/05/20 00:30:54;;;;;;;4.23;1.87;;;;;;;13.27;48.33;101242.90;1451615;89;21422;-84
2022/05/20 00:33:21;;;;;;;2.97;1.60;;;;;;;13.22;48.62;101241.13;1453810;89;22028;-84
2022/05/20 00:35:48;;;;;;;5.40;1.70;;;;;;;13.17;48.48;101244.70;1455318;89;21584;-84
2022/05/20 00:38:16;;;;;;;4.53;2.80;;;;;;;13.12;48.29;101253.13;1454941;89;22993;-84
2022/05/20 00:40:43;;;;;;;4.03;2.00;;;;;;;13.07;48.71;101251.38;1450221;89;21372;-85
2022/05/20 00:43:31;;;;;;;4.23;2.20;;;;;;;13.00;48.97;101247.11;1447396;89;23553;-84
2022/05/20 00:46:05;;;;;;;6.97;2.10;;;;;;;12.96;48.88;101241.75;1437396;89;21652;-82
2022/05/20 00:48:32;;;;;;;3.20;1.93;;;;;;;12.90;48.83;101233.03;1453384;89;22537;-83
2022/05/20 00:51:02;;;;;;;6.43;1.87;;;;;;;12.87;48.92;101238.62;1452341;89;21585;-84
2022/05/20 00:53:40;;;;;;;4.30;2.37;;;;;;;12.83;48.80;101241.20;1441917;89;21519;-82
2022/05/20 00:56:11;;;;;;;6.07;2.37;;;;;;;12.77;49.07;101238.62;1432351;90;21545;-83
2022/05/20 00:58:38;;;;;;;3.70;2.20;;;;;;;12.76;49.31;101242.77;1430804;89;21385;-83
2022/05/20 01:01:05;;;;;;;2.97;1.77;;;;;;;12.72;49.30;101245.38;1439026;90;21535;-83
2022/05/20 01:03:31;;;;;;;11.27;3.07;;;;;;;12.68;49.47;101251.92;1433784;90;21460;-82
2022/05/20 01:05:59;;;;;;;5.43;1.93;;;;;;;12.65;49.44;101250.39;1451557;89;21437;-82
2022/05/20 01:08:30;;;;;;;5.97;2.17;;;;;;;12.62;49.47;101246.20;1454797;89;22160;-82
2022/05/20 01:10:57;;;;;;;4.97;2.45;;;;;;;12.57;49.57;101244.48;1445683;89;21556;-83
2022/05/20 01:13:30;;;;;;;4.23;1.83;;;;;;;12.54;49.60;101245.22;1432333;89;21591;-83
2022/05/20 01:16:02;;;;;;;6.23;2.30;;;;;;;12.51;49.77;101236.21;1431717;91;22412;-83
2022/05/20 01:18:26;;;;;;;4.85;1.98;;;;;;;12.46;49.94;101243.29;1442186;89;21554;-82
2022/05/20 01:20:56;;;;;;;8.50;2.33;;;;;;;12.41;50.01;101238.88;1441983;89;21457;-82
2022/05/20 01:23:27;;;;;;;2.87;1.90;;;;;;;12.36;50.28;101243.27;1432675;91;22464;-82
2022/05/20 01:25:57;;;;;;;4.30;2.45;;;;;;;12.31;50.34;101242.84;1429729;90;23832;-83
2022/05/20 01:28:26;;;;;;;9.35;1.60;;;;;;;12.25;51.03;101242.56;1441102;89;21466;-83
2022/05/20 01:31:00;;;;;;;7.10;2.03;;;;;;;12.16;51.39;101242.41;1454349;89;21431;-83
2022/05/20 01:33:37;;;;;;;3.37;1.87;;;;;;;12.12;51.48;101250.80;1449979;89;21452;-83
2022/05/20 01:36:09;;;;;;;3.20;2.07;;;;;;;12.07;51.63;101241.92;1433337;90;21591;-83
2022/05/20 01:38:35;;;;;;;3.83;2.17;;;;;;;12.01;52.56;101243.80;1448994;89;21423;-83
2022/05/20 01:41:12;;;;;;;4.43;2.60;;;;;;;11.93;52.62;101243.64;1454864;89;21629;-83
2022/05/20 01:43:59;;;;;;;8.07;2.03;;;;;;;11.90;52.33;101242.59;1456660;89;21459;-83
2022/05/20 01:46:43;;;;;;;4.83;2.47;;;;;;;11.86;52.23;101240.70;1453140;89;21548;-83
2022/05/20 01:49:39;;;;;;;3.50;2.23;;;;;;;11.83;52.27;101242.77;1452529;89;21473;-84
2022/05/20 01:52:25;;;;;;;3.57;2.23;;;;;;;11.79;52.32;101236.87;1434498;90;21519;-84
2022/05/20 01:55:09;;;;;;;8.53;2.47;;;;;;;11.73;52.66;101234.27;1427389;91;22438;-84
2022/05/20 01:58:05;;;;;;;3.00;2.13;;;;;;;11.70;52.69;101233.22;1439223;89;21651;-83
2022/05/20 02:00:35;;;;;;;4.87;2.70;;;;;;;11.64;53.22;101236.41;1436630;91;22449;-83
2022/05/20 02:03:21;;;;;;;4.53;2.60;;;;;;;11.60;53.23;101240.31;1426830;91;22545;-81
2022/05/20 02:06:02;;;;;;;6.80;2.47;;;;;;;11.56;53.13;101230.94;1431588;91;22397;-81
2022/05/20 02:08:51;;;;;;;3.83;2.42;;;;;;;11.54;53.15;101230.25;1436553;90;21496;-84
2022/05/20 02:11:41;;;;;;;3.40;2.07;;;;;;;11.50;53.56;101229.66;1430443;91;21481;-84
2022/05/20 02:14:19;;;;;;;6.10;2.77;;;;;;;11.47;53.83;101229.09;1417402;91;21496;-84
2022/05/20 02:16:50;;;;;;;10.30;2.70;;;;;;;11.43;53.88;101223.23;1441606;90;24311;-84
2022/05/20 02:19:28;;;;;;;4.50;2.40;;;;;;;11.41;53.98;101228.30;1432199;90;21600;-84
2022/05/20 02:21:57;;;;;;;8.00;2.70;;;;;;;11.39;55.05;101223.62;1437020;90;21600;-84
2022/05/20 02:24:27;;;;;;;7.50;2.73;;;;;;;11.37;54.24;101221.12;1429807;91;23326;-84
2022/05/20 02:27:05;;;;;;;8.93;3.13;;;;;;;11.35;54.36;101219.08;1428543;91;22590;-83
2022/05/20 02:29:39;;;;;;;8.93;3.53;;;;;;;11.32;54.30;101217.19;1429662;90;21422;-84
2022/05/20 02:32:27;;;;;;;6.27;2.30;;;;;;;11.29;54.55;101216.47;1430656;89;21466;-84
2022/05/20 02:34:54;;;;;;;4.77;2.90;;;;;;;11.29;54.67;101214.31;1447071;89;21599;-84
2022/05/20 02:37:31;;;;;;;6.80;3.47;;;;;;;11.27;54.73;101212.27;1449528;89;21459;-85
2022/05/20 02:39:59;;;;;;;4.60;3.50;;;;;;;11.26;54.72;101223.36;1453130;89;21562;-84
2022/05/20 02:42:28;;;;;;;3.77;2.60;;;;;;;11.24;54.78;101223.97;1456423;89;21474;-84
2022/05/20 02:44:59;;;;;;;8.80;3.33;;;;;;;11.22;54.82;101231.23;1442389;89;21481;-84
2022/05/20 02:47:31;;;;;;;5.60;3.02;;;;;;;11.21;55.36;101236.16;1434024;90;21467;-85
2022/05/20 02:49:56;;;;;;;6.80;2.93;;;;;;;11.20;55.11;101236.31;1449068;89;21422;-84
2022/05/20 02:52:22;;;;;;;6.77;3.17;;;;;;;11.18;55.07;101243.05;1454562;89;22377;-83
2022/05/20 02:54:48;;;;;;;13.10;4.33;;;;;;;11.16;55.47;101244.98;1456084;89;21414;-82
2022/05/20 02:57:16;;;;;;;7.37;2.90;;;;;;;11.14;55.88;101242.98;1455086;89;21416;-77
2022/05/20 03:05:16;;;;;;;5.20;2.80;;;;;;;11.08;56.20;101234.23;1419314;89;21437;-83
2022/05/20 03:07:42;;;;;;;6.23;3.33;;;;;;;11.09;56.25;101235.06;1424151;90;21609;-83
2022/05/20 03:10:09;;;;;;;7.60;3.10;;;;;;;11.08;56.17;101228.94;1428947;90;21458;-83
2022/05/20 03:12:35;;;;;;;4.00;2.80;;;;;;;11.07;57.07;101233.86;1433908;90;21459;-83
2022/05/20 03:15:05;;;;;;;9.63;3.03;;;;;;;11.10;57.05;101236.24;1450237;89;21458;-85
2022/05/20 03:17:32;;;;;;;6.37;3.33;;;;;;;11.12;56.60;101241.42;1445460;89;21495;-85
2022/05/20 03:19:58;;;;;;;8.17;3.93;;;;;;;11.12;56.62;101238.28;1471864;88;21338;-84
2022/05/20 03:22:24;;;;;;;8.40;3.20;;;;;;;11.13;56.96;101244.42;1476400;88;21456;-85
2022/05/20 03:24:51;;;;;;;11.67;3.83;;;;;;;11.14;57.01;101236.35;1471450;88;21406;-84
2022/05/20 03:27:17;;;;;;;8.43;3.47;;;;;;;11.17;58.09;101238.73;1440870;89;22592;-83
2022/05/20 03:29:45;;;;;;;9.90;2.47;;;;;;;11.19;57.12;101243.43;1446081;89;21423;-83
2022/05/20 03:32:12;;;;;;;6.73;3.20;;;;;;;11.22;57.80;101244.48;1449017;89;21451;-83
2022/05/20 03:35:00;;;;;;;5.43;3.60;;;;;;;11.26;57.22;101247.22;1437102;89;22367;-83
2022/05/20 03:37:26;;;;;;;7.03;3.37;;;;;;;11.29;57.00;101252.25;1403921;91;21625;-83
2022/05/20 03:39:55;;;;;;;6.90;3.23;;;;;;;11.37;56.97;101254.73;1393074;92;21440;-83
2022/05/20 03:42:23;;;;;;;5.70;2.20;;;;;;;11.42;56.99;101247.20;1402047;91;21518;-84
2022/05/20 03:44:50;;;;;;;13.23;3.47;;;;;;;11.48;56.79;101257.30;1419743;91;21395;-83
2022/05/20 03:47:17;;;;;;;9.43;2.90;;;;;;;11.52;56.83;101253.40;1420418;89;21526;-83
2022/05/20 03:49:43;;;;;;;5.30;3.03;;;;;;;11.60;56.67;101247.44;1430057;89;22766;-83
2022/05/20 03:52:11;;;;;;;9.87;2.83;;;;;;;11.68;56.69;101245.80;1435488;89;21527;-84
2022/05/20 03:54:38;;;;;;;6.23;2.83;;;;;;;11.75;56.80;101248.23;1428195;90;22384;-85
2022/05/20 03:57:05;;;;;;;4.83;3.07;;;;;;;11.82;56.52;101239.24;1413717;90;21925;-85
2022/05/20 03:59:36;;;;;;;6.20;2.50;;;;;;;11.87;56.42;101234.41;1436747;90;21482;-84
2022/05/20 04:02:06;;;;;;;11.97;3.23;;;;;;;11.93;56.53;101231.70;1413651;91;21540;-83
2022/05/20 04:04:43;;;;;;;4.92;2.85;;;;;;;12.00;56.77;101234.17;1434077;90;21472;-84
2022/05/20 04:07:18;;;;;;;4.80;2.83;;;;;;;12.05;56.22;101234.58;1432447;89;21518;-85
2022/05/20 04:09:45;;;;;;;5.97;2.53;;;;;;;12.12;56.23;101226.44;1429918;89;21662;-84
2022/05/20 04:12:28;;;;;;;6.83;2.93;;;;;;;12.17;55.87;101221.55;1428249;90;21447;-85
2022/05/20 04:14:55;;;;;;;5.57;2.70;;;;;;;12.24;55.73;101219.67;1425430;89;22426;-84
2022/05/20 04:17:22;;;;;;;5.93;3.00;;;;;;;12.32;55.80;101211.85;1410136;91;21451;-84
2022/05/20 04:19:49;;;;;;;9.63;2.40;;;;;;;12.40;55.67;101213.32;1426373;89;22389;-85
2022/05/20 04:22:20;;;;;;;5.80;2.77;;;;;;;12.44;55.62;101213.37;1430822;89;21658;-84
2022/05/20 04:24:46;;;;;;;4.27;3.03;;;;;;;12.49;55.63;101205.84;1446748;89;21503;-85
2022/05/20 04:27:12;;;;;;;4.80;2.90;;;;;;;12.55;55.43;101211.91;1417182;91;21564;-85
2022/05/20 04:29:38;;;;;;;10.13;3.17;;;;;;;12.62;55.44;101212.17;1416532;91;22302;-84
2022/05/20 04:32:05;;;;;;;6.30;2.67;;;;;;;12.72;55.14;101214.33;1424711;90;21413;-84
2022/05/20 04:34:31;;;;;;;10.40;3.07;;;;;;;12.82;55.14;101208.99;1433130;89;21621;-84
2022/05/20 04:36:58;;;;;;;9.03;2.87;;;;;;;12.93;55.28;101216.80;1430014;89;21541;-85
2022/05/20 04:39:24;;;;;;;6.70;2.63;;;;;;;13.08;54.93;101219.33;1415074;90;21496;-84
2022/05/20 04:47:30;;;;;;;4.73;2.67;;;;;;;13.45;54.20;101221.69;1434317;90;22624;-82
2022/05/20 04:49:56;;;;;;;6.70;2.70;;;;;;;13.59;54.10;101231.84;1428588;89;21449;-83
2022/05/20 04:52:23;;;;;;;9.20;4.10;;;;;;;13.69;53.84;101233.94;1425762;90;21408;-83
2022/05/20 04:54:49;;;;;;;9.27;3.33;;;;;;;13.76;53.47;101227.55;1413647;90;22497;-83
2022/05/20 04:57:26;;;;;;;82.17;6.20;;;;;;;13.86;53.82;101236.30;1435679;89;21519;-84
2022/05/20 04:59:56;;;;;;;10.90;3.17;;;;;;;13.96;53.46;101231.77;1427263;90;21472;-82
2022/05/20 05:02:22;;;;;;;4.15;2.60;;;;;;;14.06;53.09;101235.69;1437662;90;22418;-82
2022/05/20 05:04:48;;;;;;;7.57;3.00;;;;;;;14.13;52.39;101242.59;1438376;89;23223;-82
2022/05/20 05:07:16;;;;;;;12.67;3.17;;;;;;;14.14;52.19;101242.92;1442947;89;21464;-85
2022/05/20 05:09:44;;;;;;;8.53;2.90;;;;;;;14.16;52.32;101249.78;1431110;90;21629;-84
2022/05/20 05:12:12;;;;;;;5.80;2.47;;;;;;;14.23;52.11;101254.00;1417767;91;22338;-82
2022/05/20 05:14:42;;;;;;;3.93;2.10;;;;;;;14.29;52.11;101252.55;1439035;89;21436;-80
2022/05/20 05:17:10;;;;;;;4.47;2.27;;;;;;;14.33;52.20;101256.11;1443912;89;21619;-80
2022/05/20 05:19:39;;;;;;;6.67;3.10;;;;;;;14.44;52.89;101246.56;1442007;89;21449;-80
2022/05/20 05:22:07;;;;;;;19.10;3.40;;;;;;;14.63;51.85;101240.23;1436232;90;21644;-80
2022/05/20 05:24:52;;;;;;;8.97;2.97;;;;;;;14.80;51.63;101241.70;1430308;89;21474;-81
2022/05/20 05:27:19;;;;;;;6.73;2.60;;;;;;;14.95;51.28;101243.31;1429616;89;21490;-80
2022/05/20 05:29:45;;;;;;;13.40;3.00;;;;;;;15.09;50.82;101242.73;1428443;89;21487;-80
2022/05/20 05:32:11;;;;;;;11.37;2.87;;;;;;;15.12;50.39;101238.42;1429329;89;22337;-80
2022/05/20 05:34:41;;;;;;;13.23;3.07;;;;;;;15.29;50.08;101242.84;1437594;90;21443;-80
2022/05/20 05:37:10;;;;;;;9.03;3.67;;;;;;;15.37;49.93;101235.40;1435389;89;21511;-80
2022/05/20 05:39:37;;;;;;;16.93;3.43;;;;;;;15.53;49.52;101242.63;1441019;90;21474;-80
2022/05/20 05:42:04;;;;;;;7.80;3.03;;;;;;;15.70;49.50;101239.05;1429318;90;21943;-80
2022/05/20 05:44:30;;;;;;;9.57;2.07;;;;;;;15.79;49.32;101232.77;1415749;90;22346;-80
2022/05/20 05:46:56;;;;;;;7.57;2.73;;;;;;;15.94;49.11;101233.45;1419845;91;21458;-80
2022/05/20 05:49:23;;;;;;;15.60;2.60;;;;;;;16.08;48.53;101232.81;1413195;90;21654;-80
2022/05/20 05:51:49;;;;;;;5.57;2.73;;;;;;;16.09;47.97;101229.16;1414707;90;22588;-79
2022/05/20 05:54:18;;;;;;;7.40;1.90;;;;;;;16.14;48.28;101238.86;1433173;90;22440;-80
2022/05/20 05:56:44;;;;;;;6.00;1.90;;;;;;;16.27;48.30;101240.20;1442026;90;22521;-80
2022/05/20 05:59:10;;;;;;;8.57;2.67;;;;;;;16.42;47.66;101242.05;1436842;89;21457;-80
2022/05/20 06:01:36;;;;;;;9.03;2.17;;;;;;;16.52;46.77;101243.23;1447168;89;21437;-81
2022/05/20 06:04:02;;;;;;;16.23;2.87;;;;;;;16.64;46.73;101245.91;1436604;90;21585;-81
2022/05/20 06:06:29;;;;;;;16.93;2.77;;;;;;;16.83;46.63;101243.91;1446385;89;21568;-80
2022/05/20 06:08:55;;;;;;;10.60;2.43;;;;;;;16.99;46.25;101238.55;1444985;89;21471;-80
2022/05/20 06:11:22;;;;;;;10.30;2.80;;;;;;;17.17;46.23;101241.52;1422341;90;21524;-86
2022/05/20 06:13:48;;;;;;;4.17;2.47;;;;;;;17.29;45.60;101235.66;1431797;89;21541;-81
2022/05/20 06:16:21;;;;;;;6.43;2.93;;;;;;;17.34;45.08;101240.47;1440170;90;21383;-78
2022/05/20 06:18:49;;;;;;;11.67;2.90;;;;;;;17.42;45.37;101243.63;1433005;89;21414;-81
2022/05/20 06:21:15;;;;;;;13.93;2.97;;;;;;;17.50;44.81;101240.93;1438223;89;22804;-81
2022/05/20 06:23:42;;;;;;;6.53;2.73;;;;;;;17.61;44.80;101247.24;1431401;89;22011;-81
2022/05/20 06:26:08;;;;;;;10.73;2.53;;;;;;;17.72;43.64;101250.87;1430122;90;21386;-80
2022/05/20 06:28:34;;;;;;;65.40;4.53;;;;;;;17.83;43.91;101245.64;1448452;90;21394;-82
2022/05/20 06:31:01;;;;;;;10.00;2.50;;;;;;;17.91;43.39;101246.95;1424025;90;21540;-80
2022/05/20 06:33:27;;;;;;;13.23;3.53;;;;;;;18.09;43.83;101238.64;1429564;91;21399;-81
2022/05/20 06:41:22;;;;;;;7.00;2.67;;;;;;;18.41;42.23;101242.09;1432989;89;22404;-80
2022/05/20 06:43:48;;;;;;;6.13;2.63;;;;;;;18.53;41.93;101235.80;1435831;89;21976;-80
2022/05/20 06:46:16;;;;;;;5.60;2.30;;;;;;;18.64;41.54;101240.73;1425051;91;21637;-80
2022/05/20 06:48:53;;;;;;;13.23;2.93;;;;;;;18.75;41.83;101241.69;1422732;90;21472;-80
2022/05/20 06:51:23;;;;;;;12.13;2.70;;;;;;;18.88;41.93;101243.76;1416705;91;21436;-81
2022/05/20 06:53:52;;;;;;;13.38;2.90;;;;;;;19.05;40.25;101240.41;1395659;91;22220;-80
2022/05/20 06:56:21;;;;;;;12.90;4.10;;;;;;;19.17;39.28;101237.59;1412620;91;21612;-79
2022/05/20 06:58:48;;;;;;;10.50;2.90;;;;;;;19.27;39.65;101239.47;1428893;90;21583;-79
2022/05/20 07:01:15;;;;;;;8.37;2.80;;;;;;;19.38;39.44;101235.50;1421095;91;21428;-79
2022/05/20 07:03:42;;;;;;;12.80;3.23;;;;;;;19.42;38.59;101239.50;1431514;90;21481;-78
2022/05/20 07:06:09;;;;;;;8.73;2.80;;;;;;;19.56;39.49;101228.40;1425680;91;21472;-80
2022/05/20 07:08:37;;;;;;;14.67;2.53;;;;;;;19.72;38.84;101230.91;1427866;90;21547;-80
2022/05/20 07:11:04;;;;;;;5.27;3.00;;;;;;;19.86;38.61;101224.37;1434870;90;23510;-79
2022/05/20 07:13:31;;;;;;;14.63;3.80;;;;;;;19.94;37.81;101229.60;1450333;90;21494;-80
2022/05/20 07:15:59;;;;;;;8.17;2.43;;;;;;;20.05;38.30;101218.36;1424850;90;21574;-80
2022/05/20 07:18:27;;;;;;;5.80;2.73;;;;;;;20.22;38.05;101217.60;1432900;89;21628;-81
2022/05/20 07:20:54;;;;;;;15.83;3.08;;;;;;;20.38;38.10;101216.01;1436083;90;21478;-80
2022/05/20 07:23:24;;;;;;;15.58;2.70;;;;;;;20.53;37.68;101229.92;1429872;89;21547;-80
2022/05/20 07:25:50;;;;;;;9.00;2.93;;;;;;;20.69;37.64;101229.14;1430501;90;21743;-80
2022/05/20 07:28:16;;;;;;;25.32;3.10;;;;;;;20.85;36.84;101229.34;1436220;89;21409;-80
2022/05/20 07:30:43;;;;;;;6.40;2.42;;;;;;;20.96;35.77;101237.40;1428515;89;21597;-80
2022/05/20 07:33:09;;;;;;;3.67;2.45;;;;;;;21.00;35.67;101235.96;1421885;90;22560;-81
2022/05/20 07:35:36;;;;;;;9.58;2.25;;;;;;;21.11;35.37;101238.63;1421233;91;21473;-80
2022/05/20 07:38:03;;;;;;;10.78;2.40;;;;;;;21.18;33.96;101241.69;1413565;91;22171;-80
2022/05/20 07:40:29;;;;;;;12.58;2.35;;;;;;;21.31;34.41;101234.19;1421379;90;21370;-80
2022/05/20 07:42:56;;;;;;;12.13;3.08;;;;;;;21.49;34.42;101235.55;1430266;89;21627;-80
2022/05/20 07:45:22;;;;;;;7.97;2.00;;;;;;;21.63;33.80;101235.41;1438484;90;21459;-80
2022/05/20 07:47:49;;;;;;;5.70;3.25;;;;;;;21.74;32.17;101234.53;1445019;90;21421;-81
2022/05/20 07:50:16;;;;;;;13.68;2.77;;;;;;;21.79;32.50;101226.16;1441546;90;21449;-80
2022/05/20 07:55:34;;;;;;;;;;;;;;;22.03;32.47;101228.81;1425725;91;21543;-80
2022/05/20 07:58:08;;;;;;;12.40;2.80;;;;;;;22.17;31.61;101211.33;1426018;90;20465;-81
2022/05/20 08:00:34;;;;;;;4.20;2.20;;;;;;;22.24;31.60;101203.60;1440356;90;22562;-81
2022/05/20 08:03:02;;;;;;;31.50;3.62;;;;;;;22.32;30.03;101209.30;1447253;90;21614;-80
2022/05/20 08:05:31;;;;;;;5.55;2.58;;;;;;;22.42;30.39;101207.03;1435110;90;23410;-80
2022/05/20 08:08:02;;;;;;;13.98;2.25;;;;;;;22.57;30.03;101200.08;1440099;90;21410;-80
2022/05/20 08:10:31;;;;;;;7.80;2.27;;;;;;;22.67;30.27;101203.20;1428693;91;22666;-80
2022/05/20 08:12:58;;;;;;;3.35;1.92;;;;;;;22.73;29.45;101200.19;1434135;90;21432;-80
2022/05/20 08:15:25;;;;;;;8.15;2.30;;;;;;;22.81;28.27;101202.64;1428447;91;21519;-93
2022/05/20 08:17:52;;;;;;;8.00;2.60;;;;;;;22.88;28.89;101195.38;1442883;90;22476;-92
2022/05/20 08:20:25;;;;;;;7.22;2.20;;;;;;;22.90;27.69;101194.66;1439906;90;21533;-88
2022/05/20 08:22:55;;;;;;;8.05;2.30;;;;;;;22.98;28.06;101195.80;1432547;90;21556;-93
2022/05/20 08:25:24;;;;;;;9.83;2.50;;;;;;;23.06;27.56;101186.65;1429659;90;21647;-91
2022/05/20 08:27:51;;;;;;;6.60;2.22;;;;;;;23.14;27.82;101181.55;1429346;91;21506;-92
2022/05/20 08:30:22;;;;;;;5.40;2.30;;;;;;;23.23;27.73;101184.32;1433906;90;22448;-91
2022/05/20 08:32:49;;;;;;;7.62;2.00;;;;;;;23.31;27.17;101184.61;1425012;89;21596;-92
2022/05/20 08:35:16;;;;;;;55.48;5.55;;;;;;;23.39;26.26;101179.80;1422337;90;21459;-90
2022/05/20 08:37:45;;;;;;;9.78;2.25;;;;;;;23.54;26.77;101176.82;1428562;90;21527;-91
2022/05/20 08:40:20;;;;;;;5.92;2.15;;;;;;;23.58;25.32;101184.79;1430861;90;21556;-91
2022/05/20 08:42:49;;;;;;;4.30;2.25;;;;;;;23.68;25.76;101177.59;1438019;89;21474;-92
2022/05/20 08:45:18;;;;;;;9.48;2.52;;;;;;;23.73;25.94;101179.66;1442488;90;21473;-91
2022/05/20 08:47:49;;;;;;;5.47;2.02;;;;;;;23.81;26.02;101186.98;1433885;90;21413;-91
2022/05/20 08:50:23;;;;;;;9.83;2.02;;;;;;;23.90;24.38;101175.40;1443050;89;22396;-94
2022/05/20 08:52:53;;;;;;;4.62;2.50;;;;;;;24.08;25.43;101176.85;1441219;89;21387;-92
2022/05/20 08:55:19;;;;;;;11.15;2.62;;;;;;;24.26;25.82;101167.98;1433080;90;22449;-92
2022/05/20 08:57:57;;;;;;;14.68;2.15;;;;;;;24.46;25.44;101170.55;1438910;90;21473;-91
2022/05/20 09:00:26;;;;;;;10.90;2.02;;;;;;;24.53;23.52;101179.95;1441131;91;21555;-95
2022/05/20 09:02:52;;;;;;;14.68;1.98;;;;;;;24.59;23.83;101172.83;1416081;91;22375;-94
2022/05/20 09:05:24;;;;;;;7.37;1.85;;;;;;;24.65;24.68;101164.63;1412487;91;21569;-90
2022/05/20 09:08:01;;;;;;;17.20;2.70;;;;;;;24.60;22.39;101160.44;1389557;90;21585;-91
2022/05/20 09:10:44;;;;;;;12.25;2.45;;;;;;;24.67;23.56;101155.78;1411364;90;22859;-88
2022/05/20 09:13:22;;;;;;;9.90;2.00;;;;;;;24.79;23.44;101150.98;1427772;90;21352;-89
2022/05/20 09:16:05;;;;;;;7.55;2.12;;;;;;;24.87;23.40;101138.51;1409449;89;21398;-89
2022/05/20 09:18:39;;;;;;;9.73;1.95;;;;;;;24.95;22.63;101139.57;1430127;90;21542;-88
2022/05/20 09:21:10;;;;;;;7.05;1.95;;;;;;;24.91;22.96;101131.58;1419393;91;21398;-90
2022/05/20 09:23:59;;;;;;;29.00;2.92;;;;;;;25.04;22.07;101144.98;1435510;89;21537;-90
2022/05/20 09:26:37;;;;;;;13.93;2.50;;;;;;;25.18;22.54;101135.67;1415316;89;22461;-90
2022/05/20 09:29:24;;;;;;;11.05;2.65;;;;;;;25.07;21.61;101140.46;1431089;89;21435;-91
2022/05/20 09:31:56;;;;;;;11.90;3.00;;;;;;;25.26;22.09;101130.98;1419864;89;21539;-90
2022/05/20 09:34:31;;;;;;;13.43;2.75;;;;;;;25.36;22.43;101121.27;1421749;89;22483;-92
2022/05/20 09:37:17;;;;;;;12.05;2.20;;;;;;;25.49;22.43;101113.50;1413392;92;21369;-91
2022/05/20 09:39:50;;;;;;;5.33;1.77;;;;;;;25.56;22.04;101107.98;1410985;92;21453;-90
2022/05/20 09:42:29;;;;;;;8.20;2.20;;;;;;;25.49;21.68;101109.44;1413272;92;23575;-92
2022/05/20 09:45:03;;;;;;;6.10;2.17;;;;;;;25.50;21.56;101108.37;1401728;92;22444;-88
2022/05/20 09:47:53;;;;;;;5.47;2.12;;;;;;;25.52;21.26;101101.35;1389548;94;21556;-91
2022/05/20 09:50:38;;;;;;;4.83;2.47;;;;;;;25.64;21.73;101105.77;1389181;93;21393;-90
2022/05/20 09:53:11;;;;;;;8.00;2.47;;;;;;;25.78;21.37;101099.62;1391715;93;21504;-93
2022/05/20 09:55:46;;;;;;;5.42;2.30;;;;;;;25.93;21.77;101092.44;1390066;93;21564;-90
2022/05/20 09:58:28;;;;;;;5.03;1.85;;;;;;;25.91;20.80;101091.83;1410440;93;21480;-94
2022/05/20 10:01:06;;;;;;;6.92;2.60;;;;;;;25.94;21.26;101093.25;1389641;93;21490;-85
2022/05/20 10:03:46;;;;;;;6.67;2.00;;;;;;;25.98;21.66;101090.36;1392388;92;21526;-85
2022/05/20 10:06:36;;;;;;;9.73;2.62;;;;;;;26.05;22.04;101082.42;1405568;92;21629;-82
2022/05/20 10:09:07;;;;;;;19.73;2.30;;;;;;;26.18;21.82;101076.46;1393077;93;21452;-92
2022/05/20 10:12:11;;;;;;;4.47;2.55;;;;;;;26.21;21.26;101073.27;1393169;91;21482;-92
2022/05/20 10:14:56;;;;;;;40.45;3.80;;;;;;;26.18;21.49;101077.81;1392398;92;21400;-93
2022/05/20 10:18:11;;;;;;;12.23;2.62;;;;;;;26.18;21.83;101061.55;1392999;91;21453;-87
2022/05/20 10:21:03;;;;;;;7.75;2.02;;;;;;;26.33;21.35;101060.55;1380775;94;21556;-89
2022/05/20 10:23:41;;;;;;;8.10;2.70;;;;;;;26.42;21.17;101076.77;1364624;94;21459;-93
2022/05/20 10:26:16;;;;;;;8.25;2.52;;;;;;;26.51;21.24;101052.84;1374282;94;21668;-93
2022/05/20 10:34:44;;;;;;;3.98;2.10;;;;;;;26.96;20.37;101048.89;1358357;94;21585;-92
2022/05/20 10:37:19;;;;;;;5.37;2.20;;;;;;;27.06;20.24;101044.72;1406617;92;21650;-93
2022/05/20 10:40:32;;;;;;;11.53;2.10;;;;;;;27.03;19.03;101045.21;1392238;92;21644;-94
2022/05/20 10:43:18;;;;;;;9.93;2.33;;;;;;;26.94;19.46;101046.13;1384941;92;22411;-92
2022/05/20 10:49:14;;;;;;;4.70;2.62;;;;;;;27.12;19.72;101029.63;1405263;92;21555;-94
2022/05/20 10:51:54;;;;;;;7.80;2.33;;;;;;;27.10;18.81;101019.53;1399807;92;21646;-94
2022/05/20 10:55:04;;;;;;;10.45;1.92;;;;;;;27.22;19.33;101029.86;1396979;92;21630;-93
2022/05/20 10:58:00;;;;;;;11.65;2.75;;;;;;;27.42;19.73;101015.81;1353527;94;23114;-94
2022/05/20 11:00:37;;;;;;;4.20;2.15;;;;;;;27.56;19.69;101016.84;1402052;92;21592;-92
2022/05/20 11:03:21;;;;;;;7.58;2.35;;;;;;;27.81;19.34;101013.21;1408750;92;21571;-93
2022/05/20 11:06:34;;;;;;;4.45;2.15;;;;;;;27.99;19.04;101008.03;1375519;93;21643;-93
2022/05/20 11:09:09;;;;;;;10.30;2.45;;;;;;;28.12;18.51;100998.72;1367414;94;21490;-93
2022/05/20 11:12:00;;;;;;;9.00;2.58;;;;;;;28.09;19.04;100994.59;1418790;91;21660;-92
2022/05/20 11:14:44;;;;;;;4.92;2.20;;;;;;;28.16;18.66;100992.23;1417867;91;22467;-95
2022/05/20 11:17:39;;;;;;;5.00;2.40;;;;;;;28.21;19.14;100990.41;1399899;91;21512;-93
2022/05/20 11:20:54;;;;;;;103.15;7.90;;;;;;;28.09;17.89;100995.95;1417988;91;21496;-93
2022/05/20 11:23:29;;;;;;;7.80;2.70;;;;;;;28.05;18.70;100992.10;1400334;93;21518;-94
2022/05/20 11:26:26;;;;;;;4.62;2.60;;;;;;;28.12;18.85;100976.95;1396640;93;21480;-94
2022/05/20 11:29:33;;;;;;;3.33;2.37;;;;;;;28.35;19.16;100981.34;1392045;93;21379;-92
2022/05/20 11:32:09;;;;;;;9.30;2.20;;;;;;;28.46;18.13;100970.90;1395354;92;21482;-94
2022/05/20 11:35:18;;;;;;;8.90;2.30;;;;;;;28.45;18.28;100969.23;1378426;94;21587;-93
2022/05/20 11:38:29;;;;;;;7.90;1.72;;;;;;;28.44;17.98;100960.80;1370723;94;21543;-93
2022/05/20 11:41:13;;;;;;;9.98;2.00;;;;;;;28.51;17.79;100956.50;1373065;94;21454;-92
2022/05/20 11:44:09;;;;;;;5.25;2.42;;;;;;;28.57;17.69;100960.96;1421901;91;21468;-93
2022/05/20 11:47:06;;;;;;;14.47;2.25;;;;;;;28.62;18.19;100961.00;1399293;91;21697;-94
2022/05/20 11:49:53;;;;;;;18.92;2.08;;;;;;;28.66;18.86;100965.41;1428027;91;21455;-94
2022/05/20 11:52:43;;;;;;;7.50;2.10;;;;;;;28.91;18.02;100957.49;1422360;91;21652;-94
2022/05/20 11:55:32;;;;;;;13.38;2.50;;;;;;;29.06;18.18;100942.41;1422407;91;21462;-93
2022/05/20 11:58:06;;;;;;;3.33;1.60;;;;;;;29.31;18.32;100945.91;1411817;91;21515;-95
2022/05/20 12:00:39;;;;;;;12.10;2.42;;;;;;;29.34;17.57;100949.48;1425607;91;22555;-94
2022/05/20 12:03:13;;;;;;;6.37;1.80;;;;;;;29.28;17.71;100945.06;1424556;91;21630;-92
2022/05/20 12:05:43;;;;;;;9.00;2.15;;;;;;;29.35;17.45;100935.59;1427001;91;21484;-93
2022/05/20 12:08:45;;;;;;;9.83;2.87;;;;;;;29.29;17.97;100930.34;1431685;91;21447;-93
2022/05/20 12:11:31;;;;;;;12.13;1.90;;;;;;;29.24;17.84;100928.42;1364431;95;22411;-93
2022/05/20 12:14:13;;;;;;;7.90;1.98;;;;;;;29.11;17.87;100927.47;1365345;95;21496;-93
2022/05/20 12:17:05;;;;;;;9.65;2.20;;;;;;;28.97;18.04;100931.97;1354691;95;21587;-92
2022/05/20 12:26:10;;;;;;;5.95;2.37;;;;;;;28.35;18.60;100922.27;1363795;95;22148;-94
2022/05/20 12:28:43;;;;;;;7.60;2.15;;;;;;;28.20;18.60;100920.73;1358310;95;21680;-94